Terminal Aerodrome Forecast
Issued by NWS

Home | Current Version | Previous Version | Text Only | Print | Product List | Glossary On
Versions: 1 2 3 4 5 6 7 8 9 10 11 12 13
330
FTUS46 KSEW 030530
TAFPAE
TAF
KPAE 030530Z 0306/0406 36006KT P6SM SCT130
     FM031200 19005KT P6SM SCT130 BKN250
     FM032000 23007KT P6SM SCT130 BKN250
     FM040200 32007KT P6SM VCSH BKN050 OVC110=

USA.gov is the U.S. government's official web portal to all federal, state and local government web resources and services.